Time;durP1;ratioP1;P1;durP2;ratioP2;P2;SDS_P1;SDS_P2;PMS_P1;PMS_P2;Temp;Humidity;BMP_temperature;BMP_pressure;BME280_temperature;BME280_humidity;BME280_pressure;Samples;Min_cycle;Max_cycle;Signal;HPM_P1;HPM_P2
2023/01/19 00:01:23;;;;;;;10.63;3.78;;;;;;;;;;6210908;23;20337;-86
2023/01/19 00:03:49;;;;;;;9.70;3.58;;;;;;;;;;6211807;23;20134;-85
2023/01/19 00:06:16;;;;;;;6.45;3.03;;;;;;;;;;6184586;23;20445;-85
2023/01/19 00:08:44;;;;;;;7.80;3.92;;;;;;;;;;6210614;23;20009;-85
2023/01/19 00:11:11;;;;;;;10.57;5.15;;;;;;;;;;6210475;23;20071;-85
2023/01/19 00:13:37;;;;;;;11.00;4.15;;;;;;;;;;6183929;23;20004;-85
2023/01/19 00:16:04;;;;;;;8.18;3.20;;;;;;;;;;6210691;23;20004;-86
2023/01/19 00:18:29;;;;;;;6.72;2.60;;;;;;;;;;6184019;23;20005;-85
2023/01/19 00:20:55;;;;;;;6.45;2.47;;;;;;;;;;6183917;23;20011;-85
2023/01/19 00:23:22;;;;;;;6.65;2.55;;;;;;;;;;6184664;23;20009;-85
2023/01/19 00:25:50;;;;;;;12.88;2.63;;;;;;;;;;6184703;23;20015;-86
2023/01/19 00:28:16;;;;;;;9.38;3.70;;;;;;;;;;6210587;23;20000;-85
2023/01/19 00:30:42;;;;;;;6.50;2.58;;;;;;;;;;6210533;23;20317;-85
2023/01/19 00:33:09;;;;;;;6.90;2.20;;;;;;;;;;6210284;23;20429;-85
2023/01/19 00:35:35;;;;;;;7.38;2.53;;;;;;;;;;6183872;23;20433;-85
2023/01/19 00:38:01;;;;;;;7.82;2.10;;;;;;;;;;6210353;23;20001;-85
2023/01/19 00:40:27;;;;;;;8.40;2.00;;;;;;;;;;6210921;23;20008;-85
2023/01/19 00:42:54;;;;;;;8.73;2.45;;;;;;;;;;6210497;23;20426;-85
2023/01/19 00:45:21;;;;;;;5.40;2.35;;;;;;;;;;6211524;23;20000;-86
2023/01/19 00:47:49;;;;;;;5.13;2.35;;;;;;;;;;6210550;23;20063;-86
2023/01/19 00:50:15;;;;;;;5.15;1.85;;;;;;;;;;6210311;23;20003;-86
2023/01/19 00:52:42;;;;;;;7.22;2.10;;;;;;;;;;6183455;23;20015;-86
2023/01/19 00:55:10;;;;;;;5.75;2.75;;;;;;;;;;6210458;23;20009;-85
2023/01/19 00:57:36;;;;;;;6.72;1.60;;;;;;;;;;6210393;23;20001;-85
2023/01/19 01:00:05;;;;;;;5.88;2.58;;;;;;;;;;6210397;23;20000;-86
2023/01/19 01:02:31;;;;;;;;;;;;;;;;;;6184098;23;20504;-86
2023/01/19 01:04:57;;;;;;;4.95;1.70;;;;;;;;;;6210283;23;19900;-86
2023/01/19 01:07:24;;;;;;;4.10;1.55;;;;;;;;;;6184429;23;20005;-85
2023/01/19 01:09:50;;;;;;;3.88;1.60;;;;;;;;;;6211420;23;20001;-85
2023/01/19 01:12:16;;;;;;;2.67;1.90;;;;;;;;;;6210354;23;20028;-85
2023/01/19 01:14:43;;;;;;;5.18;1.98;;;;;;;;;;6183495;23;20043;-85
2023/01/19 01:17:10;;;;;;;4.35;2.08;;;;;;;;;;6210158;23;19997;-85
2023/01/19 01:19:37;;;;;;;6.25;2.25;;;;;;;;;;6210140;23;20008;-85
2023/01/19 01:22:03;;;;;;;4.75;1.85;;;;;;;;;;6209881;23;20001;-86
2023/01/19 01:24:29;;;;;;;6.15;1.90;;;;;;;;;;6210524;23;20079;-86
2023/01/19 01:26:56;;;;;;;8.50;1.98;;;;;;;;;;6210746;23;20005;-85
2023/01/19 01:29:22;;;;;;;4.68;1.80;;;;;;;;;;6211268;23;20001;-86
2023/01/19 01:31:48;;;;;;;5.32;2.15;;;;;;;;;;6210217;23;20028;-85
2023/01/19 01:34:14;;;;;;;7.80;2.13;;;;;;;;;;6210024;23;20437;-86
2023/01/19 01:36:40;;;;;;;5.82;2.03;;;;;;;;;;6210260;23;20012;-85
2023/01/19 01:39:06;;;;;;;4.45;2.33;;;;;;;;;;6183722;23;20029;-85
2023/01/19 01:41:32;;;;;;;6.43;2.55;;;;;;;;;;6185313;23;20008;-85
2023/01/19 01:44:00;;;;;;;5.15;1.83;;;;;;;;;;6185347;23;20346;-86
2023/01/19 01:46:27;;;;;;;7.50;2.53;;;;;;;;;;6213063;23;19996;-86
2023/01/19 01:49:02;;;;;;;5.57;2.42;;;;;;;;;;6212856;23;20000;-86
2023/01/19 01:51:30;;;;;;;5.57;2.58;;;;;;;;;;6185424;23;20567;-85
2023/01/19 01:54:10;;;;;;;5.80;2.53;;;;;;;;;;6213014;23;20055;-86
2023/01/19 01:56:42;;;;;;;2.80;1.75;;;;;;;;;;6185388;23;20337;-86
2023/01/19 01:59:11;;;;;;;3.83;2.25;;;;;;;;;;6212211;23;20012;-86
2023/01/19 02:04:22;;;;;;;5.35;2.42;;;;;;;;;;6211755;23;20060;-85
2023/01/19 02:15:05;;;;;;;12.45;4.70;;;;;;;;;;6211759;23;20027;-85
2023/01/19 02:17:31;;;;;;;16.13;6.35;;;;;;;;;;6211661;23;20047;-87
2023/01/19 02:19:57;;;;;;;12.82;6.00;;;;;;;;;;6186097;23;20000;-85
2023/01/19 02:22:39;;;;;;;14.07;6.00;;;;;;;;;;6211868;23;20441;-85
2023/01/19 02:25:06;;;;;;;3.95;2.40;;;;;;;;;;6212274;23;20004;-86
2023/01/19 02:27:32;;;;;;;4.95;1.90;;;;;;;;;;6211690;23;20007;-85
2023/01/19 02:30:02;;;;;;;5.18;1.90;;;;;;;;;;6212666;23;20004;-86
2023/01/19 02:32:28;;;;;;;5.72;3.30;;;;;;;;;;6212445;23;20374;-85
2023/01/19 02:34:54;;;;;;;7.90;3.15;;;;;;;;;;6212406;23;20012;-85
2023/01/19 02:37:21;;;;;;;7.80;2.50;;;;;;;;;;6184999;23;20005;-85
2023/01/19 02:39:50;;;;;;;2.08;1.70;;;;;;;;;;6211599;23;20361;-86
2023/01/19 02:42:31;;;;;;;6.25;1.90;;;;;;;;;;6185023;23;20004;-86
2023/01/19 02:44:58;;;;;;;2.72;1.80;;;;;;;;;;6212429;23;20001;-86
2023/01/19 02:47:24;;;;;;;3.20;1.58;;;;;;;;;;6211695;23;20024;-86
2023/01/19 02:49:57;;;;;;;5.13;1.73;;;;;;;;;;6211630;23;20005;-85
2023/01/19 02:52:23;;;;;;;4.43;1.65;;;;;;;;;;6185100;23;20011;-85
2023/01/19 02:55:04;;;;;;;4.85;2.38;;;;;;;;;;6211262;23;20020;-85
2023/01/19 02:57:42;;;;;;;4.25;2.05;;;;;;;;;;6211849;23;20000;-85
2023/01/19 03:00:14;;;;;;;6.57;2.63;;;;;;;;;;6211545;23;20043;-85
2023/01/19 03:02:40;;;;;;;3.88;1.88;;;;;;;;;;6211380;23;20035;-85
2023/01/19 03:05:12;;;;;;;4.88;1.70;;;;;;;;;;6211364;23;20000;-85
2023/01/19 03:07:38;;;;;;;4.18;1.60;;;;;;;;;;6185205;23;20033;-87
2023/01/19 03:10:28;;;;;;;3.85;1.30;;;;;;;;;;6186008;23;20016;-90
2023/01/19 03:13:14;;;;;;;3.03;1.40;;;;;;;;;;6173097;23;20039;-86
2023/01/19 03:15:44;;;;;;;2.10;1.20;;;;;;;;;;6210820;23;20013;-86
2023/01/19 03:18:11;;;;;;;3.90;1.27;;;;;;;;;;6184381;23;20016;-85
2023/01/19 03:20:39;;;;;;;3.42;1.48;;;;;;;;;;6211046;23;20062;-87
2023/01/19 03:23:07;;;;;;;5.00;1.60;;;;;;;;;;6211156;23;20005;-87
2023/01/19 03:25:35;;;;;;;4.78;1.90;;;;;;;;;;6184406;23;20396;-86
2023/01/19 03:28:01;;;;;;;2.08;1.08;;;;;;;;;;6185526;23;20059;-86
2023/01/19 03:30:30;;;;;;;2.83;1.30;;;;;;;;;;6212031;23;20062;-86
2023/01/19 03:33:00;;;;;;;3.40;1.60;;;;;;;;;;6184546;23;20008;-86
2023/01/19 03:35:28;;;;;;;1.77;1.20;;;;;;;;;;6183533;23;20047;-86
2023/01/19 03:37:57;;;;;;;5.28;1.50;;;;;;;;;;6210802;23;20038;-84
2023/01/19 03:40:24;;;;;;;1.27;1.17;;;;;;;;;;6184568;23;20461;-85
2023/01/19 03:42:50;;;;;;;5.82;1.48;;;;;;;;;;6210924;23;20051;-85
2023/01/19 03:45:16;;;;;;;1.63;1.20;;;;;;;;;;6211164;23;20444;-85
2023/01/19 03:47:43;;;;;;;4.40;1.77;;;;;;;;;;6210671;23;20008;-85
2023/01/19 03:50:13;;;;;;;4.60;1.60;;;;;;;;;;6210820;23;20001;-86
2023/01/19 03:52:40;;;;;;;6.40;1.77;;;;;;;;;;6211148;23;20023;-86
2023/01/19 03:55:06;;;;;;;5.30;1.80;;;;;;;;;;6210591;23;20012;-85
2023/01/19 03:57:32;;;;;;;3.35;1.52;;;;;;;;;;6211910;23;20029;-87
2023/01/19 03:59:58;;;;;;;2.30;1.30;;;;;;;;;;6211024;23;20005;-87
2023/01/19 04:02:24;;;;;;;3.30;1.50;;;;;;;;;;6184180;23;20238;-87
2023/01/19 04:04:50;;;;;;;7.00;1.65;;;;;;;;;;6210996;23;19996;-87
2023/01/19 04:07:16;;;;;;;4.82;2.10;;;;;;;;;;6210926;23;20000;-85
2023/01/19 04:09:42;;;;;;;5.22;2.42;;;;;;;;;;6210806;23;19997;-86
2023/01/19 04:12:08;;;;;;;2.55;1.45;;;;;;;;;;6210648;23;20004;-86
2023/01/19 04:14:35;;;;;;;11.02;4.75;;;;;;;;;;6211164;23;20036;-85
2023/01/19 04:17:01;;;;;;;2.25;1.42;;;;;;;;;;6185006;23;20000;-88
2023/01/19 04:19:27;;;;;;;4.43;2.40;;;;;;;;;;6184074;23;20016;-86
2023/01/19 04:21:54;;;;;;;13.25;7.28;;;;;;;;;;6210862;23;20009;-87
2023/01/19 04:24:20;;;;;;;7.40;3.70;;;;;;;;;;6183921;23;20009;-86
2023/01/19 04:26:46;;;;;;;7.93;2.05;;;;;;;;;;6183938;23;20058;-86
2023/01/19 04:29:13;;;;;;;1.98;1.50;;;;;;;;;;6210576;23;20375;-86
2023/01/19 04:31:39;;;;;;;3.60;1.55;;;;;;;;;;6184081;23;20004;-87
2023/01/19 04:34:05;;;;;;;1.55;1.30;;;;;;;;;;6211677;23;20009;-87
2023/01/19 04:36:31;;;;;;;8.95;1.80;;;;;;;;;;6184869;23;20004;-87
2023/01/19 04:38:57;;;;;;;6.05;1.90;;;;;;;;;;6184385;23;20099;-87
2023/01/19 04:41:23;;;;;;;5.13;1.80;;;;;;;;;;6210459;23;20070;-87
2023/01/19 04:43:49;;;;;;;8.27;1.95;;;;;;;;;;6210458;23;20011;-86
2023/01/19 04:46:15;;;;;;;5.78;1.70;;;;;;;;;;6183937;23;20004;-87
2023/01/19 04:48:41;;;;;;;4.07;2.30;;;;;;;;;;6210579;23;20027;-87
2023/01/19 04:51:07;;;;;;;4.57;1.83;;;;;;;;;;6210798;23;20001;-87
2023/01/19 04:53:33;;;;;;;7.25;1.88;;;;;;;;;;6211472;23;20404;-88
2023/01/19 04:55:59;;;;;;;7.93;1.95;;;;;;;;;;6183809;23;20000;-89
2023/01/19 04:58:26;;;;;;;5.70;2.00;;;;;;;;;;6183779;23;20011;-87
2023/01/19 05:00:52;;;;;;;7.50;1.90;;;;;;;;;;6183981;23;20421;-86
2023/01/19 05:03:18;;;;;;;4.75;1.98;;;;;;;;;;6184217;23;20023;-91
2023/01/19 05:05:45;;;;;;;10.10;1.90;;;3.10;99.90;;;;;;6211222;23;20005;-89
2023/01/19 05:08:47;;;;;;;5.15;1.70;;;3.10;99.90;;;;;;6186205;23;20008;-93
2023/01/19 05:11:48;;;;;;;;;;;;;;;;;;;;;
2023/01/19 05:14:34;;;;;;;5.88;1.75;;;4.10;99.90;;;;;;6091782;23;20089;-92
2023/01/19 06:25:52;;;;;;;3.70;1.88;;;2.30;99.90;;;;;;6156014;23;20023;-89
2023/01/19 06:28:17;;;;;;;4.78;1.83;;;2.80;99.90;;;;;;6211170;23;20360;-91
2023/01/19 06:30:48;;;;;;;2.63;1.92;;;2.80;99.90;;;;;;6211465;23;20004;-92
2023/01/19 06:33:14;;;;;;;4.93;2.10;;;2.50;99.90;;;;;;6211382;23;20401;-90
2023/01/19 06:35:45;;;;;;;4.55;2.05;;;2.70;99.90;;;;;;6213639;23;20422;-90
2023/01/19 06:38:15;;;;;;;9.50;2.25;;;2.30;99.90;;;;;;6212118;23;20015;-92
2023/01/19 06:40:42;;;;;;;7.07;2.30;;;2.40;99.90;;;;;;6212732;23;20425;-90
2023/01/19 06:43:08;;;;;;;5.28;2.30;;;3.00;99.90;;;;;;6212493;23;20429;-92
2023/01/19 06:45:34;;;;;;;5.82;2.60;;;2.60;99.90;;;;;;6211867;23;20314;-93
2023/01/19 06:47:59;;;;;;;3.97;2.20;;;2.50;99.90;;;;;;6212783;23;20020;-93
2023/01/19 06:50:26;;;;;;;8.68;2.53;;;2.40;99.90;;;;;;6211434;23;20035;-92
2023/01/19 06:52:52;;;;;;;5.55;2.30;;;2.80;99.90;;;;;;6212810;23;20004;-91
2023/01/19 06:55:18;;;;;;;6.28;2.60;;;2.70;99.90;;;;;;6212630;23;20001;-92
2023/01/19 06:57:43;;;;;;;7.97;2.83;;;2.60;99.90;;;;;;6211511;23;20000;-90
2023/01/19 07:00:11;;;;;;;4.35;2.60;;;2.70;99.90;;;;;;6214028;23;20011;-91
2023/01/19 07:02:41;;;;;;;5.00;2.80;;;2.50;99.90;;;;;;6211314;23;20084;-90
2023/01/19 07:05:08;;;;;;;6.70;3.70;;;2.90;99.90;;;;;;6211113;23;20001;-90
2023/01/19 07:07:34;;;;;;;9.15;3.83;;;2.60;99.90;;;;;;6212905;23;20035;-92
2023/01/19 07:10:00;;;;;;;7.63;4.20;;;2.50;99.90;;;;;;6211565;23;20425;-92
2023/01/19 07:12:25;;;;;;;9.02;4.43;;;2.70;99.90;;;;;;6211377;23;20092;-90
2023/01/19 07:14:51;;;;;;;9.68;4.90;;;2.90;99.90;;;;;;6212477;23;20008;-92
2023/01/19 07:17:18;;;;;;;7.82;4.30;;;2.60;99.90;;;;;;6210899;23;20000;-93
2023/01/19 07:19:45;;;;;;;10.70;4.32;;;2.70;99.90;;;;;;6211645;23;20009;-90
2023/01/19 07:22:11;;;;;;;6.50;4.20;;;2.50;99.90;;;;;;6211787;23;20028;-90
2023/01/19 07:24:36;;;;;;;7.55;4.57;;;2.30;99.90;;;;;;6212598;23;19996;-90
2023/01/19 07:27:04;;;;;;;12.57;4.47;;;3.00;99.90;;;;;;6210725;23;20083;-90
2023/01/19 07:29:29;;;;;;;8.77;4.07;;;2.60;99.90;;;;;;6210911;23;20441;-92
2023/01/19 07:31:55;;;;;;;11.50;4.53;;;2.40;99.90;;;;;;6212452;23;20028;-92
2023/01/19 07:34:21;;;;;;;9.27;3.90;;;2.70;99.90;;;;;;6210428;23;20059;-91
2023/01/19 07:36:47;;;;;;;6.47;3.17;;;2.50;99.90;;;;;;6211774;23;20031;-91
2023/01/19 07:39:13;;;;;;;7.95;2.78;;;2.90;99.90;;;;;;6211301;23;20009;-90
2023/01/19 07:41:38;;;;;;;6.68;3.00;;;2.60;99.90;;;;;;6210634;23;20004;-92
2023/01/19 07:44:04;;;;;;;7.13;2.63;;;2.60;99.90;;;;;;6210595;23;20086;-91
2023/01/19 07:46:30;;;;;;;9.63;3.10;;;2.50;99.90;;;;;;6211828;23;20001;-91
2023/01/19 07:48:55;;;;;;;6.97;3.40;;;2.40;99.90;;;;;;6210860;23;20009;-90
2023/01/19 07:51:21;;;;;;;6.93;2.97;;;2.40;99.90;;;;;;6212034;23;20000;-91
2023/01/19 07:53:49;;;;;;;11.77;4.13;;;2.40;99.90;;;;;;6210476;23;20016;-93
2023/01/19 07:56:15;;;;;;;12.15;4.00;;;2.20;99.90;;;;;;6211727;23;20008;-91
2023/01/19 07:58:41;;;;;;;8.50;4.35;;;2.10;99.90;;;;;;6213099;23;20068;-91
2023/01/19 08:01:09;;;;;;;7.13;4.20;;;2.20;99.90;;;;;;6210745;23;20001;-91
2023/01/19 08:03:35;;;;;;;6.85;3.92;;;2.40;99.90;;;;;;6211580;23;20000;-90
2023/01/19 08:06:02;;;;;;;7.45;4.00;;;2.40;99.90;;;;;;6210034;23;20005;-92
2023/01/19 08:08:32;;;;;;;7.45;3.63;;;2.10;99.90;;;;;;6210870;23;20074;-91
2023/01/19 08:10:58;;;;;;;9.38;3.90;;;2.30;99.90;;;;;;6210335;23;20005;-90
2023/01/19 08:13:24;;;;;;;7.38;4.10;;;2.40;99.90;;;;;;6210266;23;20012;-90
2023/01/19 08:15:51;;;;;;;6.85;3.92;;;2.90;99.90;;;;;;6210786;23;20092;-90
2023/01/19 08:18:17;;;;;;;11.05;4.35;;;2.70;99.90;;;;;;6211947;23;20092;-91
2023/01/19 08:20:43;;;;;;;11.70;4.32;;;2.20;99.90;;;;;;6211117;23;20013;-92
2023/01/19 08:23:09;;;;;;;9.43;4.18;;;2.40;99.90;;;;;;6210820;23;20059;-92
2023/01/19 08:25:38;;;;;;;9.00;3.78;;;2.50;99.90;;;;;;6210677;23;20000;-91
2023/01/19 08:28:05;;;;;;;9.68;3.95;;;2.50;99.90;;;;;;6210857;23;20022;-91
2023/01/19 08:30:31;;;;;;;9.85;4.50;;;2.70;99.90;;;;;;6212060;23;20001;-90
2023/01/19 08:33:02;;;;;;;7.72;3.72;;;2.60;99.90;;;;;;6210642;23;20031;-90
2023/01/19 08:35:42;;;;;;;6.82;4.05;;;2.70;99.90;;;;;;6210316;23;20012;-91
2023/01/19 08:38:09;;;;;;;6.70;3.85;;;2.60;99.90;;;;;;6210288;23;20145;-91
2023/01/19 08:40:37;;;;;;;9.68;4.13;;;2.70;99.90;;;;;;6210988;23;20009;-91
2023/01/19 08:43:10;;;;;;;5.53;3.08;;;3.40;99.90;;;;;;6210399;23;20441;-91
2023/01/19 08:45:40;;;;;;;6.65;3.33;;;2.60;99.90;;;;;;6210634;23;20008;-93
2023/01/19 08:48:06;;;;;;;8.00;3.20;;;3.10;99.90;;;;;;6210956;23;20009;-91
2023/01/19 08:50:34;;;;;;;5.25;2.90;;;3.00;99.90;;;;;;6211218;23;20009;-92
2023/01/19 08:53:01;;;;;;;;;;;3.00;99.90;;;;;;6215327;23;20000;-90
2023/01/19 08:55:27;;;;;;;5.80;3.15;;;3.10;99.90;;;;;;6235028;23;19948;-90
2023/01/19 08:57:56;;;;;;;9.27;3.95;;;3.20;99.90;;;;;;6232354;23;20009;-90
2023/01/19 09:00:25;;;;;;;;;;;3.30;99.90;;;;;;6232723;23;20416;-92
2023/01/19 09:02:52;;;;;;;11.10;4.10;;;3.20;99.90;;;;;;6210530;23;19950;-90
2023/01/19 09:05:17;;;;;;;8.55;3.65;;;3.10;99.90;;;;;;6212756;23;20001;-92
2023/01/19 09:07:46;;;;;;;9.20;3.55;;;3.40;99.90;;;;;;6211623;23;20075;-91
2023/01/19 09:10:13;;;;;;;8.65;4.53;;;3.50;99.90;;;;;;6210304;23;20083;-92
2023/01/19 09:12:39;;;;;;;7.65;3.88;;;2.90;99.90;;;;;;6210173;23;20015;-91
2023/01/19 09:15:06;;;;;;;8.05;3.67;;;3.10;99.90;;;;;;6211727;23;20012;-91
2023/01/19 09:17:31;;;;;;;6.15;3.75;;;3.30;99.90;;;;;;6211978;23;20395;-89
2023/01/19 09:19:57;;;;;;;7.57;4.10;;;3.40;99.90;;;;;;6210152;23;20012;-92
2023/01/19 09:22:23;;;;;;;7.45;3.90;;;3.40;99.90;;;;;;6211712;23;19997;-90
2023/01/19 09:24:49;;;;;;;7.15;3.90;;;3.40;99.90;;;;;;6212871;23;20004;-92
2023/01/19 09:27:15;;;;;;;11.18;5.60;;;3.50;99.90;;;;;;6210393;23;20016;-91
2023/01/19 09:29:40;;;;;;;7.38;4.70;;;3.90;99.90;;;;;;6211820;23;20175;-92
2023/01/19 09:32:06;;;;;;;8.05;4.22;;;3.40;99.90;;;;;;6210814;23;20008;-91
2023/01/19 09:34:32;;;;;;;7.78;3.80;;;3.20;99.90;;;;;;6210491;23;20437;-92
2023/01/19 09:36:57;;;;;;;7.70;3.20;;;3.90;99.90;;;;;;6211691;23;20028;-93
2023/01/19 09:39:26;;;;;;;7.80;4.15;;;3.70;99.90;;;;;;6210435;23;20091;-91
2023/01/19 09:42:05;;;;;;;10.02;4.80;;;3.60;99.90;;;;;;6211857;23;20000;-91
2023/01/19 09:44:34;;;;;;;11.18;5.07;;;3.90;99.90;;;;;;6210782;23;20039;-92
2023/01/19 09:47:03;;;;;;;9.60;5.78;;;4.20;99.90;;;;;;6210476;23;20001;-92
2023/01/19 09:49:41;;;;;;;10.20;6.45;;;3.70;99.90;;;;;;6210152;23;20001;-90
2023/01/19 09:52:12;;;;;;;11.73;6.97;;;3.90;99.90;;;;;;6210150;23;20005;-92
2023/01/19 09:54:53;;;;;;;14.13;6.90;;;3.70;99.90;;;;;;6209989;23;20028;-91
2023/01/19 09:57:20;;;;;;;13.35;7.18;;;4.20;99.90;;;;;;6210850;23;20005;-91
2023/01/19 09:59:49;;;;;;;9.80;6.75;;;3.80;99.90;;;;;;6211658;23;20228;-92
2023/01/19 10:02:45;;;;;;;12.68;6.60;;;4.30;99.90;;;;;;6211761;23;20441;-92
2023/01/19 10:05:38;;;;;;;10.02;6.22;;;3.70;99.90;;;;;;6212431;23;20000;-91
2023/01/19 10:08:32;;;;;;;10.63;6.00;;;3.80;99.90;;;;;;6212621;23;20031;-93
2023/01/19 10:10:58;;;;;;;8.05;5.43;;;3.80;99.90;;;;;;6211842;23;20341;-91
2023/01/19 10:13:45;;;;;;;9.98;5.75;;;4.30;99.90;;;;;;6212128;23;20051;-90
2023/01/19 10:16:45;;;;;;;17.63;5.80;;;4.10;99.90;;;;;;6212017;23;20009;-91
2023/01/19 10:19:40;;;;;;;7.78;5.40;;;3.80;99.90;;;;;;6213286;23;20004;-92
2023/01/19 10:22:32;;;;;;;10.27;5.18;;;3.90;99.90;;;;;;6211769;23;20009;-91
2023/01/19 10:25:04;;;;;;;8.80;5.22;;;4.50;99.90;;;;;;6206063;23;20004;-92
2023/01/19 10:27:33;;;;;;;10.02;5.05;;;4.40;99.90;;;;;;6212010;23;20013;-92
2023/01/19 10:30:00;;;;;;;9.25;4.88;;;3.90;99.90;;;;;;6211848;23;20012;-91
2023/01/19 10:32:32;;;;;;;9.50;5.60;;;4.00;99.90;;;;;;6211920;23;20001;-92
2023/01/19 10:34:59;;;;;;;10.68;4.70;;;4.00;99.90;;;;;;6211989;23;20096;-92
2023/01/19 10:37:39;;;;;;;10.63;5.18;;;3.90;99.90;;;;;;6211839;23;20005;-91
2023/01/19 10:40:10;;;;;;;11.90;5.72;;;4.00;99.90;;;;;;6212163;23;20004;-91
2023/01/19 10:42:38;;;;;;;9.57;5.20;;;4.00;99.90;;;;;;6213549;23;20075;-93
2023/01/19 10:45:22;;;;;;;10.53;5.40;;;4.40;99.90;;;;;;6212194;23;20004;-92
2023/01/19 10:47:49;;;;;;;10.38;5.20;;;4.10;99.90;;;;;;6213217;23;20000;-93
2023/01/19 10:50:22;;;;;;;8.73;5.43;;;4.00;99.90;;;;;;6211746;23;20400;-91
2023/01/19 10:52:56;;;;;;;11.75;5.28;;;4.10;99.90;;;;;;6211412;23;20083;-91
2023/01/19 10:55:30;;;;;;;8.85;4.88;;;4.30;99.90;;;;;;6212312;23;20008;-90
2023/01/19 10:57:57;;;;;;;9.73;4.78;;;4.10;99.90;;;;;;6212197;23;20406;-90
2023/01/19 11:00:42;;;;;;;7.78;4.47;;;4.70;99.90;;;;;;6211861;23;20340;-91
2023/01/19 11:03:27;;;;;;;9.40;5.03;;;4.20;99.90;;;;;;6211220;23;20001;-91
2023/01/19 11:05:59;;;;;;;13.90;4.70;;;4.20;99.90;;;;;;6212498;23;20030;-90
2023/01/19 11:08:30;;;;;;;8.85;4.70;;;4.30;99.90;;;;;;6212092;23;20001;-94
2023/01/19 11:11:06;;;;;;;9.35;5.13;;;4.80;99.90;;;;;;6213963;23;20001;-92
2023/01/19 11:13:33;;;;;;;11.55;5.53;;;4.90;99.90;;;;;;6211133;23;20019;-93
2023/01/19 11:16:13;;;;;;;9.52;5.15;;;4.80;99.90;;;;;;6212913;23;20011;-89
2023/01/19 11:18:41;;;;;;;9.75;6.05;;;4.40;99.90;;;;;;6211015;23;20001;-91
2023/01/19 11:21:13;;;;;;;13.63;7.32;;;4.50;99.90;;;;;;6211129;23;20012;-92
2023/01/19 11:23:43;;;;;;;16.00;8.02;;;4.40;99.90;;;;;;6210970;23;20055;-91
2023/01/19 11:26:17;;;;;;;18.05;8.63;;;4.40;99.90;;;;;;6210933;23;20051;-92
2023/01/19 11:28:47;;;;;;;15.30;9.23;;;4.50;99.90;;;;;;6211260;23;20009;-90
2023/01/19 11:31:13;;;;;;;14.90;7.07;;;4.50;99.90;;;;;;6220186;23;20001;-91
2023/01/19 11:33:52;;;;;;;9.20;6.00;;;4.90;99.90;;;;;;6235339;23;20015;-91
2023/01/19 11:36:29;;;;;;;12.93;5.93;;;4.50;99.90;;;;;;6235416;23;20183;-91
2023/01/19 11:38:58;;;;;;;9.55;5.15;;;4.60;99.90;;;;;;6223379;23;20074;-90
2023/01/19 11:41:36;;;;;;;13.07;5.32;;;4.50;99.90;;;;;;6211930;23;20404;-92
2023/01/19 11:44:22;;;;;;;13.55;5.10;;;5.10;99.90;;;;;;6212501;23;20373;-91
2023/01/19 11:46:58;;;;;;;10.15;5.00;;;4.60;99.90;;;;;;6212084;23;20459;-93
2023/01/19 11:49:48;;;;;;;10.68;5.15;;;5.30;99.90;;;;;;6212064;23;20376;-90
2023/01/19 11:52:33;;;;;;;9.20;5.30;;;4.70;99.90;;;;;;6211295;23;20009;-91
2023/01/19 11:55:11;;;;;;;13.27;5.68;;;4.70;99.90;;;;;;6210997;23;20445;-91
2023/01/19 11:57:42;;;;;;;9.70;6.23;;;4.70;99.90;;;;;;6212274;23;20004;-92
2023/01/19 12:00:37;;;;;;;9.05;5.85;;;4.80;99.90;;;;;;6210660;23;20016;-91
2023/01/19 12:03:31;;;;;;;14.70;6.78;;;4.80;99.90;;;;;;6210516;23;20532;-91
2023/01/19 12:06:24;;;;;;;13.98;6.90;;;4.80;99.90;;;;;;6211397;23;20015;-91
2023/01/19 12:09:04;;;;;;;11.38;7.00;;;4.80;99.90;;;;;;6211021;23;20198;-91
2023/01/19 12:12:03;;;;;;;11.93;6.80;;;5.60;99.90;;;;;;6213022;23;20024;-93
2023/01/19 12:14:41;;;;;;;13.43;7.03;;;4.90;99.90;;;;;;6211193;23;20334;-90
2023/01/19 12:17:15;;;;;;;17.73;7.10;;;5.00;99.90;;;;;;6210367;23;20031;-91
2023/01/19 12:19:40;;;;;;;12.95;7.20;;;5.10;99.90;;;;;;6210414;23;20008;-91
2023/01/19 12:22:14;;;;;;;11.52;6.50;;;5.00;99.90;;;;;;6219631;23;20072;-91
2023/01/19 12:24:50;;;;;;;12.10;6.75;;;5.20;99.90;;;;;;6234276;23;20032;-91
2023/01/19 12:27:25;;;;;;;13.18;5.00;;;5.20;99.90;;;;;;6226150;23;20523;-91
2023/01/19 12:29:53;;;;;;;9.80;5.35;;;5.10;99.90;;;;;;6212120;23;20489;-91
2023/01/19 12:32:35;;;;;;;14.13;6.25;;;5.80;99.90;;;;;;6210453;23;20001;-91
2023/01/19 12:35:02;;;;;;;8.40;4.53;;;5.20;99.90;;;;;;6210869;23;20012;-91
2023/01/19 12:37:33;;;;;;;10.88;4.10;;;5.30;99.90;;;;;;6211309;23;20001;-91
2023/01/19 12:40:16;;;;;;;12.60;5.03;;;5.20;99.90;;;;;;6212932;23;20001;-92
2023/01/19 12:42:55;;;;;;;9.45;4.57;;;5.20;99.90;;;;;;6210125;23;20005;-90
2023/01/19 12:45:24;;;;;;;5.97;4.15;;;5.40;99.90;;;;;;6210112;23;20012;-90
2023/01/19 12:47:52;;;;;;;8.13;4.30;;;5.30;99.90;;;;;;6210580;23;20054;-90
2023/01/19 12:50:20;;;;;;;8.65;4.45;;;5.20;99.90;;;;;;6210605;23;20012;-92
2023/01/19 12:52:55;;;;;;;8.83;4.10;;;5.40;99.90;;;;;;6210495;23;20389;-92
2023/01/19 12:55:35;;;;;;;8.63;3.78;;;5.20;99.90;;;;;;6210239;23;20024;-90
2023/01/19 12:58:16;;;;;;;7.70;4.30;;;5.30;99.90;;;;;;6211229;23;20001;-90
2023/01/19 13:00:43;;;;;;;6.60;4.20;;;5.50;99.90;;;;;;6210331;23;20083;-91
2023/01/19 13:03:15;;;;;;;11.05;4.07;;;5.20;99.90;;;;;;6210302;23;20001;-90
2023/01/19 13:05:41;;;;;;;7.30;3.95;;;5.50;99.90;;;;;;6210587;23;20008;-91
2023/01/19 13:08:11;;;;;;;9.15;3.75;;;5.30;99.90;;;;;;6210269;23;20036;-92
2023/01/19 13:11:01;;;;;;;10.15;3.97;;;5.40;99.90;;;;;;6212109;23;20009;-90
2023/01/19 13:13:29;;;;;;;10.38;4.45;;;5.40;99.90;;;;;;6209882;23;20095;-91
2023/01/19 13:15:57;;;;;;;11.23;5.10;;;5.40;99.90;;;;;;6210120;23;20037;-90
2023/01/19 13:18:27;;;;;;;7.50;4.25;;;5.70;99.90;;;;;;6211525;23;20281;-91
2023/01/19 13:21:00;;;;;;;7.78;4.43;;;6.20;99.90;;;;;;6210437;23;20213;-90
2023/01/19 13:23:50;;;;;;;10.60;4.68;;;5.60;99.90;;;;;;6211553;23;20164;-92
2023/01/19 13:26:22;;;;;;;9.77;4.47;;;5.60;99.90;;;;;;6210110;23;20012;-91
2023/01/19 13:29:16;;;;;;;8.45;4.95;;;6.00;99.90;;;;;;6210323;23;20001;-91
2023/01/19 13:31:52;;;;;;;8.82;4.95;;;5.60;99.90;;;;;;6199490;23;20012;-91
2023/01/19 13:34:38;;;;;;;12.05;7.03;;;5.60;99.90;;;;;;6210163;23;20020;-91
2023/01/19 13:37:05;;;;;;;13.10;5.05;;;5.60;99.90;;;;;;6212493;23;20001;-90
2023/01/19 13:39:42;;;;;;;10.45;5.55;;;5.70;99.90;;;;;;6212911;23;20008;-91
2023/01/19 13:42:38;;;;;;;10.73;5.25;;;5.60;99.90;;;;;;6212134;23;20421;-91
2023/01/19 13:45:32;;;;;;;10.30;5.20;;;5.60;99.90;;;;;;6200352;23;20043;-91
2023/01/19 13:48:01;;;;;;;11.50;5.25;;;5.60;99.90;;;;;;6200758;23;20008;-92
2023/01/19 13:50:30;;;;;;;10.15;5.00;;;5.60;99.90;;;;;;6212103;23;20028;-91
2023/01/19 13:52:57;;;;;;;;;;;5.60;99.90;;;;;;6212457;23;20087;-93
2023/01/19 13:55:25;;;;;;;9.80;5.43;;;6.00;99.90;;;;;;6211849;23;20337;-91
2023/01/19 13:57:51;;;;;;;9.20;5.30;;;5.80;99.90;;;;;;6212241;23;20008;-91
2023/01/19 14:00:21;;;;;;;11.43;4.70;;;5.30;99.90;;;;;;6212040;23;20169;-90
2023/01/19 14:02:52;;;;;;;10.82;5.10;;;5.30;99.90;;;;;;6212148;23;20323;-91
2023/01/19 14:05:30;;;;;;;10.07;4.45;;;5.70;99.90;;;;;;6213161;23;20011;-90
2023/01/19 14:08:12;;;;;;;12.07;5.22;;;5.10;99.90;;;;;;6212272;23;20294;-90
2023/01/19 14:10:46;;;;;;;11.35;4.70;;;4.90;99.90;;;;;;6225412;23;20019;-90
2023/01/19 14:13:12;;;;;;;9.93;4.90;;;5.60;99.90;;;;;;6231494;23;20001;-91
2023/01/19 14:15:39;;;;;;;11.65;6.10;;;4.70;99.90;;;;;;6231919;23;20070;-90
2023/01/19 14:18:20;;;;;;;12.25;7.47;;;5.00;99.90;;;;;;6219532;23;20011;-91
2023/01/19 14:21:00;;;;;;;11.05;6.22;;;4.90;99.90;;;;;;6211652;23;20437;-92
2023/01/19 14:23:42;;;;;;;34.60;17.98;;;4.30;99.90;;;;;;6211603;23;20012;-90
2023/01/19 14:26:36;;;;;;;8.35;4.97;;;4.40;99.90;;;;;;6211793;23;20061;-90
2023/01/19 14:29:20;;;;;;;8.05;4.22;;;4.50;99.90;;;;;;6213339;23;20437;-91
2023/01/19 14:31:49;;;;;;;9.02;4.50;;;5.00;99.90;;;;;;6211970;23;20059;-91
2023/01/19 14:34:33;;;;;;;;;;;4.40;99.90;;;;;;6212530;23;20038;-91
2023/01/19 14:37:00;;;;;;;9.98;4.68;;;4.40;99.90;;;;;;6211753;23;19903;-91
2023/01/19 14:39:29;;;;;;;12.55;6.20;;;4.70;99.90;;;;;;6213178;23;20084;-90
2023/01/19 14:41:57;;;;;;;;;;;5.20;99.90;;;;;;6212129;23;20008;-93
2023/01/19 14:44:34;;;;;;;14.07;6.73;;;5.30;99.90;;;;;;6211843;23;19923;-90
2023/01/19 14:47:00;;;;;;;16.23;8.82;;;5.40;99.90;;;;;;6211450;23;20228;-93
2023/01/19 14:49:37;;;;;;;10.85;6.75;;;5.10;99.90;;;;;;6212902;23;20047;-91
2023/01/19 14:52:14;;;;;;;12.18;5.63;;;4.80;99.90;;;;;;6211263;23;20005;-90
2023/01/19 14:54:43;;;;;;;17.08;5.32;;;5.50;99.90;;;;;;6211479;23;20017;-91
2023/01/19 14:57:10;;;;;;;;;;;4.80;99.90;;;;;;6212713;23;20005;-90
2023/01/19 14:59:36;;;;;;;12.07;4.95;;;5.00;99.90;;;;;;6212603;23;19950;-91
2023/01/19 15:02:01;;;;;;;7.15;4.38;;;5.00;99.90;;;;;;6228966;23;19989;-90
2023/01/19 15:04:27;;;;;;;7.68;4.50;;;5.00;99.90;;;;;;6213444;23;20341;-90
2023/01/19 15:06:54;;;;;;;10.82;5.70;;;5.20;99.90;;;;;;6211586;23;20012;-92
2023/01/19 15:09:20;;;;;;;14.98;6.82;;;4.80;99.90;;;;;;6211771;23;20009;-90
2023/01/19 15:11:47;;;;;;;16.73;6.32;;;4.70;99.90;;;;;;6211117;23;20009;-91